Elkton, Minnesota
Current Conditions -  °F | °C
As of 6:36 AM on Wednesday 26 Nov 2014 (Local Time) from KAUM Reporting Station
Overcast Overcast  
Wind Chill: 14°   Ceiling: 7000
Heat Index: 25°   Visibility: 10mi
Dew Point: 21°   Wind: 12mph
Humidity: 86%   Direction: 110°ESE
Pressure: 29.97"   Gusts: NA
Location:  43.66°N, 92.71°W
Report Text: KAUM 261236Z AUTO 11010KT 10SM SCT048 SCT060 OVC070 M04/M06 A2997 RMK AO2
Loading
Personal Weather Stations






























Interactive Weather Map New forecast layout! Learn more

10-Day Weather Forecast

Advertisements
Track Severe Weather on mobile